Terminal Aerodrome Forecast
Issued by NWS

Home | Current Version | Previous Version | Text Only | Print | Product List | Glossary On
Versions: 1 2 3 4 5 6 7 8 9 10 11 12 13 14 15 16 17 18 19 20 21 22 23 24 25
000
FTUS41 KPBZ 020520
TAFDUJ
TAF
KDUJ 020520Z 0206/0306 03006KT P6SM OVC010
      TEMPO 0206/0210 OVC005
     FM021500 04006KT P6SM OVC015
     FM021800 03005KT P6SM BKN040
     FM030300 VRB03KT P6SM OVC040=

USA.gov is the U.S. government's official web portal to all federal, state and local government web resources and services.